Vienna, Austria
Current Conditions -  °F | °C
As of 8:20 PM on Thursday 23 Oct 2014 (Local Time) from LOWW Reporting Station
Overcast Overcast  
Wind Chill: 39°   Ceiling: 1700
Heat Index: 46°   Visibility: 6mi
Dew Point: 41°   Wind: 20mph
Humidity: 81%   Direction: 350°N
Pressure: 30"   Gusts: NA
Location:  48.22°N, 16.37°E
Report Text: LOWW 231820Z 35017KT 9999 OVC017 08/05 Q1016 NOSIG
Loading
Personal Weather Stations






























Interactive Weather Map
Tropical Storm Tracking
New forecast layout! Learn more

10-Day Weather Forecast

Advertisements
Track Severe Weather on mobile